Portada
METAR-TAF:

METAR-TAF

Aeropuertos :

Aeropuerto de Lourdes-de-Blanc-Sablon

Blanc-Sablon, Quebec, Canadá

latitud: 51-27N, longitud: 057-11W, altitud: 30 m

Observación

El informe se hizo hace 1 hora y 3 minutos, a las 16:00 UTC
Viento 7 kt del oeste-suroeste, variando entre oeste-suroeste y noroeste
Temperatura -15°C
Humedad 50%
Presión 1013 hPa
Visibilidad: 24.1 km
Escasas nubes a una altura de 3000 ft

METAR: CYBX 231600Z 24007KT 240V310 15SM FEW030 M15/M23 A2990 RMK SC1 SLP130

Hora: 12:03 (17:03 UTC)

Pronóstico

El informe se hizo hace 3 horas y 25 minutos, a las 13:38 UTC
Pronóstico válido del 23 a las 14 UTC al 24 a las 02 UTC
Viento 12 kt del noroeste con ráfagas de 22 kt
Visibilidad: 10 km
Escasas nubes a una altura de 3000 ft
Evolucionando progresivamente
del 23 a las 22 UTC al 23 a las 24 UTC
Viento 10 kt del oeste-noroeste

TAF: CYBX 231338Z 2314/2402 31012G22KT P6SM FEW030 BECMG 2322/2324 29010KT RMK NXT FCST BY 232000Z

Observaciones y pronósticos meteorológicos de más de 4000 aeropuertos (mensajes METAR y TAF).

Los puntos amarillos y rojos representan las estaciones disponibles.

Ponga el ratón en el punto deseado para ver el nombre de la estación.

Haga clic para ver las observaciones y los pronósticos meteorológicos.

Para cambiar el mapa : haga clic en los botones verdes con una cruz de color negro para hacer un zoom, en el botón verde con un guión para alejar o en las flechas verdes para mapas adyacentes.


METAR-TAF: